sensor_id;sensor_type;location;lat;lon;timestamp;temperature;humidity
50955;DHT22;36966;48.064;-0.792;2023-10-31T00:01:09;18.20;59.00
50955;DHT22;36966;48.064;-0.792;2023-10-31T00:03:28;18.20;59.00
50955;DHT22;36966;48.064;-0.792;2023-10-31T00:05:48;18.20;59.10
50955;DHT22;36966;48.064;-0.792;2023-10-31T00:08:07;18.20;59.10
50955;DHT22;36966;48.064;-0.792;2023-10-31T00:10:26;18.20;59.10
50955;DHT22;36966;48.064;-0.792;2023-10-31T00:12:45;18.20;59.10
50955;DHT22;36966;48.064;-0.792;2023-10-31T00:15:04;18.20;59.10
50955;DHT22;36966;48.064;-0.792;2023-10-31T00:17:24;18.20;59.10
50955;DHT22;36966;48.064;-0.792;2023-10-31T00:19:43;18.20;59.10
50955;DHT22;36966;48.064;-0.792;2023-10-31T00:22:03;18.20;59.10
50955;DHT22;36966;48.064;-0.792;2023-10-31T00:24:22;18.20;59.10
50955;DHT22;36966;48.064;-0.792;2023-10-31T00:26:41;18.20;59.10
50955;DHT22;36966;48.064;-0.792;2023-10-31T00:29:01;18.20;59.10
50955;DHT22;36966;48.064;-0.792;2023-10-31T00:31:20;18.20;59.10
50955;DHT22;36966;48.064;-0.792;2023-10-31T00:33:40;18.20;59.00
50955;DHT22;36966;48.064;-0.792;2023-10-31T00:35:59;18.20;59.10
50955;DHT22;36966;48.064;-0.792;2023-10-31T00:38:18;18.20;59.00
50955;DHT22;36966;48.064;-0.792;2023-10-31T00:40:37;18.20;59.00
50955;DHT22;36966;48.064;-0.792;2023-10-31T00:42:57;18.20;59.00
50955;DHT22;36966;48.064;-0.792;2023-10-31T00:45:17;18.20;59.00
50955;DHT22;36966;48.064;-0.792;2023-10-31T00:47:36;18.20;59.10
50955;DHT22;36966;48.064;-0.792;2023-10-31T00:49:56;18.20;59.10
50955;DHT22;36966;48.064;-0.792;2023-10-31T00:52:15;18.20;59.00
50955;DHT22;36966;48.064;-0.792;2023-10-31T00:54:35;18.20;59.10
50955;DHT22;36966;48.064;-0.792;2023-10-31T00:56:55;18.20;59.10
50955;DHT22;36966;48.064;-0.792;2023-10-31T00:59:14;18.20;59.10
50955;DHT22;36966;48.064;-0.792;2023-10-31T01:01:33;18.20;59.10
50955;DHT22;36966;48.064;-0.792;2023-10-31T01:03:52;18.20;59.00
50955;DHT22;36966;48.064;-0.792;2023-10-31T01:06:12;18.20;59.10
50955;DHT22;36966;48.064;-0.792;2023-10-31T01:08:31;18.20;59.10
50955;DHT22;36966;48.064;-0.792;2023-10-31T01:10:50;18.20;59.10
50955;DHT22;36966;48.064;-0.792;2023-10-31T01:13:09;18.20;59.10
50955;DHT22;36966;48.064;-0.792;2023-10-31T01:15:28;18.10;59.00
50955;DHT22;36966;48.064;-0.792;2023-10-31T01:17:48;18.20;59.00
50955;DHT22;36966;48.064;-0.792;2023-10-31T01:20:07;18.20;59.00
50955;DHT22;36966;48.064;-0.792;2023-10-31T01:22:28;18.20;59.10
50955;DHT22;36966;48.064;-0.792;2023-10-31T01:24:47;18.20;59.10
50955;DHT22;36966;48.064;-0.792;2023-10-31T01:27:06;18.20;59.10
50955;DHT22;36966;48.064;-0.792;2023-10-31T01:29:26;18.20;59.10
50955;DHT22;36966;48.064;-0.792;2023-10-31T01:31:45;18.20;59.10
50955;DHT22;36966;48.064;-0.792;2023-10-31T01:34:04;18.20;59.10
50955;DHT22;36966;48.064;-0.792;2023-10-31T01:36:25;18.20;59.20
50955;DHT22;36966;48.064;-0.792;2023-10-31T01:38:44;18.20;59.20
50955;DHT22;36966;48.064;-0.792;2023-10-31T01:41:05;18.20;59.20
50955;DHT22;36966;48.064;-0.792;2023-10-31T01:43:34;18.20;59.30
50955;DHT22;36966;48.064;-0.792;2023-10-31T01:45:53;18.20;59.30
50955;DHT22;36966;48.064;-0.792;2023-10-31T01:48:12;18.10;59.30
50955;DHT22;36966;48.064;-0.792;2023-10-31T01:50:32;18.10;59.40
50955;DHT22;36966;48.064;-0.792;2023-10-31T01:52:51;18.20;59.30
50955;DHT22;36966;48.064;-0.792;2023-10-31T01:55:10;18.10;59.40
50955;DHT22;36966;48.064;-0.792;2023-10-31T01:57:30;18.20;59.40
50955;DHT22;36966;48.064;-0.792;2023-10-31T01:59:49;18.20;59.50
50955;DHT22;36966;48.064;-0.792;2023-10-31T02:02:08;18.10;59.50
50955;DHT22;36966;48.064;-0.792;2023-10-31T02:04:28;18.20;59.50
50955;DHT22;36966;48.064;-0.792;2023-10-31T02:06:47;18.10;59.50
50955;DHT22;36966;48.064;-0.792;2023-10-31T02:09:06;18.10;59.60
50955;DHT22;36966;48.064;-0.792;2023-10-31T02:11:25;18.20;59.60
50955;DHT22;36966;48.064;-0.792;2023-10-31T02:13:45;18.20;59.60
50955;DHT22;36966;48.064;-0.792;2023-10-31T02:16:04;18.10;59.60
50955;DHT22;36966;48.064;-0.792;2023-10-31T02:18:23;18.10;59.60
50955;DHT22;36966;48.064;-0.792;2023-10-31T02:20:43;18.10;59.60
50955;DHT22;36966;48.064;-0.792;2023-10-31T02:23:02;18.10;59.60
50955;DHT22;36966;48.064;-0.792;2023-10-31T02:25:21;18.20;59.70
50955;DHT22;36966;48.064;-0.792;2023-10-31T02:27:41;18.10;59.70
50955;DHT22;36966;48.064;-0.792;2023-10-31T02:30:00;18.20;59.70
50955;DHT22;36966;48.064;-0.792;2023-10-31T02:32:20;18.20;59.70
50955;DHT22;36966;48.064;-0.792;2023-10-31T02:34:39;18.10;59.70
50955;DHT22;36966;48.064;-0.792;2023-10-31T02:36:58;18.10;59.70
50955;DHT22;36966;48.064;-0.792;2023-10-31T02:39:17;18.10;59.70
50955;DHT22;36966;48.064;-0.792;2023-10-31T02:41:37;18.10;59.70
50955;DHT22;36966;48.064;-0.792;2023-10-31T02:43:56;18.10;59.80
50955;DHT22;36966;48.064;-0.792;2023-10-31T02:46:17;18.10;59.80
50955;DHT22;36966;48.064;-0.792;2023-10-31T02:48:36;18.10;59.80
50955;DHT22;36966;48.064;-0.792;2023-10-31T02:50:59;18.10;59.80
50955;DHT22;36966;48.064;-0.792;2023-10-31T02:53:18;18.10;59.80
50955;DHT22;36966;48.064;-0.792;2023-10-31T02:55:37;18.10;59.80
50955;DHT22;36966;48.064;-0.792;2023-10-31T02:57:57;18.10;59.80
50955;DHT22;36966;48.064;-0.792;2023-10-31T03:00:16;18.10;59.80
50955;DHT22;36966;48.064;-0.792;2023-10-31T03:02:35;18.10;59.90
50955;DHT22;36966;48.064;-0.792;2023-10-31T03:04:55;18.10;59.90
50955;DHT22;36966;48.064;-0.792;2023-10-31T03:07:14;18.10;59.90
50955;DHT22;36966;48.064;-0.792;2023-10-31T03:09:33;18.10;59.90
50955;DHT22;36966;48.064;-0.792;2023-10-31T03:11:52;18.10;59.90
50955;DHT22;36966;48.064;-0.792;2023-10-31T03:14:12;18.10;59.90
50955;DHT22;36966;48.064;-0.792;2023-10-31T03:16:31;18.10;59.90
50955;DHT22;36966;48.064;-0.792;2023-10-31T03:18:51;18.10;59.90
50955;DHT22;36966;48.064;-0.792;2023-10-31T03:21:10;18.10;59.80
50955;DHT22;36966;48.064;-0.792;2023-10-31T03:23:30;18.10;59.80
50955;DHT22;36966;48.064;-0.792;2023-10-31T03:25:49;18.10;59.90
50955;DHT22;36966;48.064;-0.792;2023-10-31T03:28:17;18.10;59.90
50955;DHT22;36966;48.064;-0.792;2023-10-31T03:30:37;18.10;59.90
50955;DHT22;36966;48.064;-0.792;2023-10-31T03:32:56;18.10;59.90
50955;DHT22;36966;48.064;-0.792;2023-10-31T03:35:15;18.00;59.90
50955;DHT22;36966;48.064;-0.792;2023-10-31T03:37:35;18.00;59.80
50955;DHT22;36966;48.064;-0.792;2023-10-31T03:39:55;18.10;59.90
50955;DHT22;36966;48.064;-0.792;2023-10-31T03:42:14;18.10;59.90
50955;DHT22;36966;48.064;-0.792;2023-10-31T03:44:34;18.00;59.90
50955;DHT22;36966;48.064;-0.792;2023-10-31T03:46:53;18.00;59.90
50955;DHT22;36966;48.064;-0.792;2023-10-31T03:49:12;18.10;59.90
50955;DHT22;36966;48.064;-0.792;2023-10-31T03:51:31;18.10;59.90
50955;DHT22;36966;48.064;-0.792;2023-10-31T03:53:51;18.00;59.90
50955;DHT22;36966;48.064;-0.792;2023-10-31T03:56:10;18.10;59.90
50955;DHT22;36966;48.064;-0.792;2023-10-31T03:58:29;18.10;59.90
50955;DHT22;36966;48.064;-0.792;2023-10-31T04:00:48;18.00;59.90
50955;DHT22;36966;48.064;-0.792;2023-10-31T04:03:08;18.10;59.90
50955;DHT22;36966;48.064;-0.792;2023-10-31T04:05:27;18.00;59.90
50955;DHT22;36966;48.064;-0.792;2023-10-31T04:07:47;18.00;59.90
50955;DHT22;36966;48.064;-0.792;2023-10-31T04:10:06;18.00;59.90
50955;DHT22;36966;48.064;-0.792;2023-10-31T04:12:26;18.00;59.90
50955;DHT22;36966;48.064;-0.792;2023-10-31T04:14:45;18.10;59.90
50955;DHT22;36966;48.064;-0.792;2023-10-31T04:17:05;18.00;59.90
50955;DHT22;36966;48.064;-0.792;2023-10-31T04:19:24;18.00;59.80
50955;DHT22;36966;48.064;-0.792;2023-10-31T04:21:43;18.00;59.90
50955;DHT22;36966;48.064;-0.792;2023-10-31T04:24:02;18.00;59.90
50955;DHT22;36966;48.064;-0.792;2023-10-31T04:26:21;18.00;59.90
50955;DHT22;36966;48.064;-0.792;2023-10-31T04:28:41;18.00;59.90
50955;DHT22;36966;48.064;-0.792;2023-10-31T04:31:00;18.00;59.80
50955;DHT22;36966;48.064;-0.792;2023-10-31T04:33:19;18.00;59.90
50955;DHT22;36966;48.064;-0.792;2023-10-31T04:35:38;18.00;59.90
50955;DHT22;36966;48.064;-0.792;2023-10-31T04:37:58;18.00;59.80
50955;DHT22;36966;48.064;-0.792;2023-10-31T04:40:18;18.00;59.80
50955;DHT22;36966;48.064;-0.792;2023-10-31T04:42:38;18.00;59.80
50955;DHT22;36966;48.064;-0.792;2023-10-31T04:44:58;18.00;59.80
50955;DHT22;36966;48.064;-0.792;2023-10-31T04:47:17;18.00;59.80
50955;DHT22;36966;48.064;-0.792;2023-10-31T04:49:36;18.00;60.60
50955;DHT22;36966;48.064;-0.792;2023-10-31T04:51:55;18.00;60.80
50955;DHT22;36966;48.064;-0.792;2023-10-31T04:54:14;18.00;61.10
50955;DHT22;36966;48.064;-0.792;2023-10-31T04:56:34;18.00;60.90
50955;DHT22;36966;48.064;-0.792;2023-10-31T04:58:53;18.00;60.50
50955;DHT22;36966;48.064;-0.792;2023-10-31T05:01:12;18.00;60.40
50955;DHT22;36966;48.064;-0.792;2023-10-31T05:03:32;18.00;60.20
50955;DHT22;36966;48.064;-0.792;2023-10-31T05:05:51;17.90;60.10
50955;DHT22;36966;48.064;-0.792;2023-10-31T05:08:10;17.90;59.80
50955;DHT22;36966;48.064;-0.792;2023-10-31T05:10:30;18.00;60.10
50955;DHT22;36966;48.064;-0.792;2023-10-31T05:12:49;17.90;60.00
50955;DHT22;36966;48.064;-0.792;2023-10-31T05:15:09;18.00;60.10
50955;DHT22;36966;48.064;-0.792;2023-10-31T05:17:29;17.90;60.10
50955;DHT22;36966;48.064;-0.792;2023-10-31T05:19:48;17.90;60.00
50955;DHT22;36966;48.064;-0.792;2023-10-31T05:22:07;17.90;60.20
50955;DHT22;36966;48.064;-0.792;2023-10-31T05:24:27;17.90;60.10
50955;DHT22;36966;48.064;-0.792;2023-10-31T05:26:46;17.90;60.00
50955;DHT22;36966;48.064;-0.792;2023-10-31T05:29:05;17.90;60.10
50955;DHT22;36966;48.064;-0.792;2023-10-31T05:31:25;17.90;60.10
50955;DHT22;36966;48.064;-0.792;2023-10-31T05:33:44;17.90;60.10
50955;DHT22;36966;48.064;-0.792;2023-10-31T05:36:04;17.90;60.00
50955;DHT22;36966;48.064;-0.792;2023-10-31T05:38:23;17.90;60.00
50955;DHT22;36966;48.064;-0.792;2023-10-31T05:40:42;17.90;60.00
50955;DHT22;36966;48.064;-0.792;2023-10-31T05:43:02;17.90;60.00
50955;DHT22;36966;48.064;-0.792;2023-10-31T05:45:22;17.90;60.00
50955;DHT22;36966;48.064;-0.792;2023-10-31T05:47:41;17.90;60.10
50955;DHT22;36966;48.064;-0.792;2023-10-31T05:50:00;17.90;60.00
50955;DHT22;36966;48.064;-0.792;2023-10-31T05:52:19;17.90;60.00
50955;DHT22;36966;48.064;-0.792;2023-10-31T05:54:39;17.90;60.00
50955;DHT22;36966;48.064;-0.792;2023-10-31T05:56:58;17.90;60.00
50955;DHT22;36966;48.064;-0.792;2023-10-31T05:59:17;17.80;60.10
50955;DHT22;36966;48.064;-0.792;2023-10-31T06:01:36;17.90;60.10
50955;DHT22;36966;48.064;-0.792;2023-10-31T06:03:56;17.80;60.00
50955;DHT22;36966;48.064;-0.792;2023-10-31T06:06:15;17.80;60.10
50955;DHT22;36966;48.064;-0.792;2023-10-31T06:08:34;17.80;60.10
50955;DHT22;36966;48.064;-0.792;2023-10-31T06:10:55;17.90;60.10
50955;DHT22;36966;48.064;-0.792;2023-10-31T06:13:14;17.80;60.00
50955;DHT22;36966;48.064;-0.792;2023-10-31T06:15:33;17.80;59.90
50955;DHT22;36966;48.064;-0.792;2023-10-31T06:17:52;17.80;60.00
50955;DHT22;36966;48.064;-0.792;2023-10-31T06:20:12;17.80;59.90
50955;DHT22;36966;48.064;-0.792;2023-10-31T06:22:31;17.80;60.00
50955;DHT22;36966;48.064;-0.792;2023-10-31T06:24:50;17.80;60.00
50955;DHT22;36966;48.064;-0.792;2023-10-31T06:27:09;17.80;60.00
50955;DHT22;36966;48.064;-0.792;2023-10-31T06:29:29;17.80;59.90
50955;DHT22;36966;48.064;-0.792;2023-10-31T06:31:48;17.80;59.90
50955;DHT22;36966;48.064;-0.792;2023-10-31T06:34:07;17.80;59.90
50955;DHT22;36966;48.064;-0.792;2023-10-31T06:36:27;17.80;59.90
50955;DHT22;36966;48.064;-0.792;2023-10-31T06:38:46;17.80;59.90
50955;DHT22;36966;48.064;-0.792;2023-10-31T06:41:05;17.80;59.90
50955;DHT22;36966;48.064;-0.792;2023-10-31T06:43:24;17.80;59.90
50955;DHT22;36966;48.064;-0.792;2023-10-31T06:45:44;17.80;59.90
50955;DHT22;36966;48.064;-0.792;2023-10-31T06:48:03;17.80;59.90
50955;DHT22;36966;48.064;-0.792;2023-10-31T06:50:22;17.80;59.90
50955;DHT22;36966;48.064;-0.792;2023-10-31T06:52:41;17.80;59.90
50955;DHT22;36966;48.064;-0.792;2023-10-31T06:55:00;17.70;59.90
50955;DHT22;36966;48.064;-0.792;2023-10-31T06:57:20;17.80;59.90
50955;DHT22;36966;48.064;-0.792;2023-10-31T06:59:39;17.70;59.90
50955;DHT22;36966;48.064;-0.792;2023-10-31T07:01:58;17.70;59.90
50955;DHT22;36966;48.064;-0.792;2023-10-31T07:04:18;17.70;59.90
50955;DHT22;36966;48.064;-0.792;2023-10-31T07:06:37;17.70;59.60
50955;DHT22;36966;48.064;-0.792;2023-10-31T07:08:56;17.80;59.60
50955;DHT22;36966;48.064;-0.792;2023-10-31T07:11:16;17.80;59.50
50955;DHT22;36966;48.064;-0.792;2023-10-31T07:13:35;17.80;59.40
50955;DHT22;36966;48.064;-0.792;2023-10-31T07:15:54;17.80;59.40
50955;DHT22;36966;48.064;-0.792;2023-10-31T07:18:13;17.80;59.50
50955;DHT22;36966;48.064;-0.792;2023-10-31T07:20:33;17.80;59.50
50955;DHT22;36966;48.064;-0.792;2023-10-31T07:22:52;17.80;59.40
50955;DHT22;36966;48.064;-0.792;2023-10-31T07:25:11;17.80;59.40
50955;DHT22;36966;48.064;-0.792;2023-10-31T07:27:30;17.80;59.40
50955;DHT22;36966;48.064;-0.792;2023-10-31T07:29:50;17.80;59.50
50955;DHT22;36966;48.064;-0.792;2023-10-31T07:32:09;17.80;59.40
50955;DHT22;36966;48.064;-0.792;2023-10-31T07:34:28;17.80;59.40
50955;DHT22;36966;48.064;-0.792;2023-10-31T07:36:48;17.80;59.40
50955;DHT22;36966;48.064;-0.792;2023-10-31T07:39:07;17.80;59.40
50955;DHT22;36966;48.064;-0.792;2023-10-31T07:41:26;17.80;59.40
50955;DHT22;36966;48.064;-0.792;2023-10-31T07:43:45;17.80;59.40
50955;DHT22;36966;48.064;-0.792;2023-10-31T07:46:05;17.80;59.50
50955;DHT22;36966;48.064;-0.792;2023-10-31T07:48:24;17.80;59.50
50955;DHT22;36966;48.064;-0.792;2023-10-31T07:50:43;17.80;59.50
50955;DHT22;36966;48.064;-0.792;2023-10-31T07:53:02;17.80;59.50
50955;DHT22;36966;48.064;-0.792;2023-10-31T07:55:22;17.80;59.50
50955;DHT22;36966;48.064;-0.792;2023-10-31T07:57:41;17.80;59.50
50955;DHT22;36966;48.064;-0.792;2023-10-31T08:00:00;17.90;59.60
50955;DHT22;36966;48.064;-0.792;2023-10-31T08:02:19;17.90;59.50
50955;DHT22;36966;48.064;-0.792;2023-10-31T08:04:39;17.90;59.70
50955;DHT22;36966;48.064;-0.792;2023-10-31T08:06:58;17.90;59.70
50955;DHT22;36966;48.064;-0.792;2023-10-31T08:09:17;18.00;60.00
50955;DHT22;36966;48.064;-0.792;2023-10-31T08:11:37;18.00;60.30
50955;DHT22;36966;48.064;-0.792;2023-10-31T08:13:56;18.00;61.30
50955;DHT22;36966;48.064;-0.792;2023-10-31T08:16:18;18.10;61.10
50955;DHT22;36966;48.064;-0.792;2023-10-31T08:18:40;18.10;60.70
50955;DHT22;36966;48.064;-0.792;2023-10-31T08:21:00;18.20;61.10
50955;DHT22;36966;48.064;-0.792;2023-10-31T08:23:19;18.20;61.20
50955;DHT22;36966;48.064;-0.792;2023-10-31T08:25:38;18.20;61.30
50955;DHT22;36966;48.064;-0.792;2023-10-31T08:27:57;18.30;61.20
50955;DHT22;36966;48.064;-0.792;2023-10-31T08:30:16;18.30;61.20
50955;DHT22;36966;48.064;-0.792;2023-10-31T08:32:36;18.40;61.70
50955;DHT22;36966;48.064;-0.792;2023-10-31T08:34:55;18.40;61.60
50955;DHT22;36966;48.064;-0.792;2023-10-31T08:37:16;18.50;61.40
50955;DHT22;36966;48.064;-0.792;2023-10-31T08:39:35;18.60;61.50
50955;DHT22;36966;48.064;-0.792;2023-10-31T08:41:55;18.70;61.40
50955;DHT22;36966;48.064;-0.792;2023-10-31T08:44:14;18.70;61.30
50955;DHT22;36966;48.064;-0.792;2023-10-31T08:46:33;18.80;61.30
50955;DHT22;36966;48.064;-0.792;2023-10-31T08:48:52;18.80;61.30
50955;DHT22;36966;48.064;-0.792;2023-10-31T08:51:11;18.90;61.40
50955;DHT22;36966;48.064;-0.792;2023-10-31T08:53:31;18.90;61.30
50955;DHT22;36966;48.064;-0.792;2023-10-31T08:55:50;18.90;61.20
50955;DHT22;36966;48.064;-0.792;2023-10-31T08:58:10;19.00;61.20
50955;DHT22;36966;48.064;-0.792;2023-10-31T09:00:29;19.00;61.10
50955;DHT22;36966;48.064;-0.792;2023-10-31T09:02:49;19.00;61.20
50955;DHT22;36966;48.064;-0.792;2023-10-31T09:05:08;19.20;61.30
50955;DHT22;36966;48.064;-0.792;2023-10-31T09:07:27;19.20;61.00
50955;DHT22;36966;48.064;-0.792;2023-10-31T09:09:47;19.20;61.00
50955;DHT22;36966;48.064;-0.792;2023-10-31T09:12:06;19.30;60.70
50955;DHT22;36966;48.064;-0.792;2023-10-31T09:14:25;19.30;60.50
50955;DHT22;36966;48.064;-0.792;2023-10-31T09:16:44;19.30;60.60
50955;DHT22;36966;48.064;-0.792;2023-10-31T09:19:03;19.30;60.50
50955;DHT22;36966;48.064;-0.792;2023-10-31T09:21:23;19.30;60.80
50955;DHT22;36966;48.064;-0.792;2023-10-31T09:23:42;19.40;60.80
50955;DHT22;36966;48.064;-0.792;2023-10-31T09:26:01;19.40;60.60
50955;DHT22;36966;48.064;-0.792;2023-10-31T09:28:21;19.50;60.70
50955;DHT22;36966;48.064;-0.792;2023-10-31T09:30:40;19.50;60.50
50955;DHT22;36966;48.064;-0.792;2023-10-31T09:33:00;19.60;61.10
50955;DHT22;36966;48.064;-0.792;2023-10-31T09:35:19;19.60;61.00
50955;DHT22;36966;48.064;-0.792;2023-10-31T09:37:38;19.70;60.80
50955;DHT22;36966;48.064;-0.792;2023-10-31T09:39:57;19.70;60.90
50955;DHT22;36966;48.064;-0.792;2023-10-31T09:42:17;19.80;60.50
50955;DHT22;36966;48.064;-0.792;2023-10-31T09:44:36;19.80;60.50
50955;DHT22;36966;48.064;-0.792;2023-10-31T09:46:55;19.90;60.20
50955;DHT22;36966;48.064;-0.792;2023-10-31T09:49:16;19.80;60.10
50955;DHT22;36966;48.064;-0.792;2023-10-31T09:51:35;19.80;60.00
50955;DHT22;36966;48.064;-0.792;2023-10-31T09:53:54;19.90;60.20
50955;DHT22;36966;48.064;-0.792;2023-10-31T09:56:14;19.90;60.50
50955;DHT22;36966;48.064;-0.792;2023-10-31T09:58:34;20.00;60.60
50955;DHT22;36966;48.064;-0.792;2023-10-31T10:00:54;20.00;60.70
50955;DHT22;36966;48.064;-0.792;2023-10-31T10:03:14;20.00;60.40
50955;DHT22;36966;48.064;-0.792;2023-10-31T10:05:34;20.10;60.80
50955;DHT22;36966;48.064;-0.792;2023-10-31T10:07:55;20.20;60.50
50955;DHT22;36966;48.064;-0.792;2023-10-31T10:10:14;20.20;60.60
50955;DHT22;36966;48.064;-0.792;2023-10-31T10:12:33;20.20;60.40
50955;DHT22;36966;48.064;-0.792;2023-10-31T10:14:53;20.20;60.00
50955;DHT22;36966;48.064;-0.792;2023-10-31T10:17:22;20.20;60.10
50955;DHT22;36966;48.064;-0.792;2023-10-31T10:19:41;20.20;59.80
50955;DHT22;36966;48.064;-0.792;2023-10-31T10:22:00;20.20;59.90
50955;DHT22;36966;48.064;-0.792;2023-10-31T10:24:20;20.10;60.00
50955;DHT22;36966;48.064;-0.792;2023-10-31T10:26:39;20.20;60.00
50955;DHT22;36966;48.064;-0.792;2023-10-31T10:28:58;20.20;60.10
50955;DHT22;36966;48.064;-0.792;2023-10-31T10:31:18;20.20;59.70
50955;DHT22;36966;48.064;-0.792;2023-10-31T10:33:37;20.30;59.80
50955;DHT22;36966;48.064;-0.792;2023-10-31T10:35:58;20.20;59.80
50955;DHT22;36966;48.064;-0.792;2023-10-31T10:38:18;20.20;59.90
50955;DHT22;36966;48.064;-0.792;2023-10-31T10:40:42;20.20;60.00
50955;DHT22;36966;48.064;-0.792;2023-10-31T10:43:01;20.30;60.10
50955;DHT22;36966;48.064;-0.792;2023-10-31T10:45:24;20.30;59.90
50955;DHT22;36966;48.064;-0.792;2023-10-31T10:47:45;20.20;59.60
50955;DHT22;36966;48.064;-0.792;2023-10-31T10:50:06;20.20;59.90
50955;DHT22;36966;48.064;-0.792;2023-10-31T10:52:30;20.10;60.00
50955;DHT22;36966;48.064;-0.792;2023-10-31T10:57:24;20.00;60.10
50955;DHT22;36966;48.064;-0.792;2023-10-31T10:59:48;20.00;60.20
50955;DHT22;36966;48.064;-0.792;2023-10-31T11:02:11;20.00;60.10
50955;DHT22;36966;48.064;-0.792;2023-10-31T11:04:32;19.90;60.20
50955;DHT22;36966;48.064;-0.792;2023-10-31T11:06:51;19.90;60.40
50955;DHT22;36966;48.064;-0.792;2023-10-31T11:09:10;19.90;60.60
50955;DHT22;36966;48.064;-0.792;2023-10-31T11:11:32;19.90;61.00
50955;DHT22;36966;48.064;-0.792;2023-10-31T11:13:52;19.90;60.90
50955;DHT22;36966;48.064;-0.792;2023-10-31T11:16:16;19.90;60.70
50955;DHT22;36966;48.064;-0.792;2023-10-31T11:18:36;19.90;60.60
50955;DHT22;36966;48.064;-0.792;2023-10-31T11:20:56;19.90;60.60
50955;DHT22;36966;48.064;-0.792;2023-10-31T11:23:15;19.90;60.60
50955;DHT22;36966;48.064;-0.792;2023-10-31T11:25:34;19.90;60.60
50955;DHT22;36966;48.064;-0.792;2023-10-31T11:27:57;19.90;60.60
50955;DHT22;36966;48.064;-0.792;2023-10-31T11:30:29;19.90;60.60
50955;DHT22;36966;48.064;-0.792;2023-10-31T11:32:51;19.90;60.60
50955;DHT22;36966;48.064;-0.792;2023-10-31T11:35:11;19.90;60.60
50955;DHT22;36966;48.064;-0.792;2023-10-31T11:37:31;19.80;60.60
50955;DHT22;36966;48.064;-0.792;2023-10-31T11:42:29;19.80;60.60
50955;DHT22;36966;48.064;-0.792;2023-10-31T11:44:59;19.70;60.70
50955;DHT22;36966;48.064;-0.792;2023-10-31T11:47:19;19.70;60.70
50955;DHT22;36966;48.064;-0.792;2023-10-31T11:49:47;19.70;60.80
50955;DHT22;36966;48.064;-0.792;2023-10-31T11:52:40;19.70;60.80
50955;DHT22;36966;48.064;-0.792;2023-10-31T11:54:52;19.70;61.00
50955;DHT22;36966;48.064;-0.792;2023-10-31T11:57:20;19.70;61.00
50955;DHT22;36966;48.064;-0.792;2023-10-31T11:59:44;19.70;61.00
50955;DHT22;36966;48.064;-0.792;2023-10-31T12:02:16;19.70;60.90
50955;DHT22;36966;48.064;-0.792;2023-10-31T12:04:35;19.70;60.90
50955;DHT22;36966;48.064;-0.792;2023-10-31T12:06:58;19.70;61.00
50955;DHT22;36966;48.064;-0.792;2023-10-31T12:09:18;19.60;61.00
50955;DHT22;36966;48.064;-0.792;2023-10-31T12:11:43;19.60;61.10
50955;DHT22;36966;48.064;-0.792;2023-10-31T12:14:03;19.60;61.20
50955;DHT22;36966;48.064;-0.792;2023-10-31T12:16:34;19.60;61.20
50955;DHT22;36966;48.064;-0.792;2023-10-31T12:19:01;19.50;61.30
50955;DHT22;36966;48.064;-0.792;2023-10-31T12:21:33;19.60;61.40
50955;DHT22;36966;48.064;-0.792;2023-10-31T12:24:01;19.60;61.40
50955;DHT22;36966;48.064;-0.792;2023-10-31T12:26:21;19.60;61.30
50955;DHT22;36966;48.064;-0.792;2023-10-31T12:28:40;19.60;61.30
50955;DHT22;36966;48.064;-0.792;2023-10-31T12:30:59;19.60;61.20
50955;DHT22;36966;48.064;-0.792;2023-10-31T12:33:21;19.60;61.20
50955;DHT22;36966;48.064;-0.792;2023-10-31T12:35:43;19.60;61.20
50955;DHT22;36966;48.064;-0.792;2023-10-31T12:38:03;19.60;61.20
50955;DHT22;36966;48.064;-0.792;2023-10-31T12:40:22;19.60;61.10
50955;DHT22;36966;48.064;-0.792;2023-10-31T12:42:42;19.60;61.20
50955;DHT22;36966;48.064;-0.792;2023-10-31T12:45:01;19.50;61.20
50955;DHT22;36966;48.064;-0.792;2023-10-31T12:47:21;19.60;61.30
50955;DHT22;36966;48.064;-0.792;2023-10-31T12:49:41;19.60;61.30
50955;DHT22;36966;48.064;-0.792;2023-10-31T12:52:01;19.60;61.10
50955;DHT22;36966;48.064;-0.792;2023-10-31T12:54:32;19.60;61.20
50955;DHT22;36966;48.064;-0.792;2023-10-31T12:56:52;19.60;61.30
50955;DHT22;36966;48.064;-0.792;2023-10-31T12:59:11;19.60;61.40
50955;DHT22;36966;48.064;-0.792;2023-10-31T13:01:31;19.60;61.20
50955;DHT22;36966;48.064;-0.792;2023-10-31T13:03:51;19.60;61.10
50955;DHT22;36966;48.064;-0.792;2023-10-31T13:06:14;19.60;60.80
50955;DHT22;36966;48.064;-0.792;2023-10-31T13:08:34;19.60;61.00
50955;DHT22;36966;48.064;-0.792;2023-10-31T13:10:53;19.60;61.00
50955;DHT22;36966;48.064;-0.792;2023-10-31T13:13:13;19.60;61.00
50955;DHT22;36966;48.064;-0.792;2023-10-31T13:15:32;19.60;61.10
50955;DHT22;36966;48.064;-0.792;2023-10-31T13:17:52;19.60;61.10
50955;DHT22;36966;48.064;-0.792;2023-10-31T13:20:12;19.60;61.10
50955;DHT22;36966;48.064;-0.792;2023-10-31T13:22:32;19.60;61.10
50955;DHT22;36966;48.064;-0.792;2023-10-31T13:24:51;19.50;61.10
50955;DHT22;36966;48.064;-0.792;2023-10-31T13:27:10;19.50;61.10
50955;DHT22;36966;48.064;-0.792;2023-10-31T13:29:34;19.50;61.10
50955;DHT22;36966;48.064;-0.792;2023-10-31T13:31:53;19.50;61.20
50955;DHT22;36966;48.064;-0.792;2023-10-31T13:34:12;19.50;61.10
50955;DHT22;36966;48.064;-0.792;2023-10-31T13:36:32;19.50;61.20
50955;DHT22;36966;48.064;-0.792;2023-10-31T13:38:51;19.50;61.30
50955;DHT22;36966;48.064;-0.792;2023-10-31T13:41:11;19.50;61.30
50955;DHT22;36966;48.064;-0.792;2023-10-31T13:43:30;19.50;61.20
50955;DHT22;36966;48.064;-0.792;2023-10-31T13:45:49;19.40;61.20
50955;DHT22;36966;48.064;-0.792;2023-10-31T13:48:09;19.50;61.20
50955;DHT22;36966;48.064;-0.792;2023-10-31T13:50:30;19.50;61.20
50955;DHT22;36966;48.064;-0.792;2023-10-31T13:52:49;19.40;61.20
50955;DHT22;36966;48.064;-0.792;2023-10-31T13:55:09;19.50;61.20
50955;DHT22;36966;48.064;-0.792;2023-10-31T13:57:28;19.50;61.20
50955;DHT22;36966;48.064;-0.792;2023-10-31T13:59:47;19.40;61.00
50955;DHT22;36966;48.064;-0.792;2023-10-31T14:02:06;19.50;61.00
50955;DHT22;36966;48.064;-0.792;2023-10-31T14:04:26;19.40;61.00
50955;DHT22;36966;48.064;-0.792;2023-10-31T14:06:45;19.40;60.80
50955;DHT22;36966;48.064;-0.792;2023-10-31T14:09:04;19.40;60.80
50955;DHT22;36966;48.064;-0.792;2023-10-31T14:11:26;19.40;60.80
50955;DHT22;36966;48.064;-0.792;2023-10-31T14:13:45;19.40;60.70
50955;DHT22;36966;48.064;-0.792;2023-10-31T14:16:04;19.40;60.80
50955;DHT22;36966;48.064;-0.792;2023-10-31T14:18:24;19.40;60.70
50955;DHT22;36966;48.064;-0.792;2023-10-31T14:20:43;19.40;60.80
50955;DHT22;36966;48.064;-0.792;2023-10-31T14:23:02;19.40;60.70
50955;DHT22;36966;48.064;-0.792;2023-10-31T14:25:22;19.40;60.70
50955;DHT22;36966;48.064;-0.792;2023-10-31T14:27:41;19.40;60.70
50955;DHT22;36966;48.064;-0.792;2023-10-31T14:30:01;19.40;60.60
50955;DHT22;36966;48.064;-0.792;2023-10-31T14:32:21;19.40;60.60
50955;DHT22;36966;48.064;-0.792;2023-10-31T14:34:40;19.40;61.60